Time;durP1;ratioP1;P1;durP2;ratioP2;P2;SDS_P1;SDS_P2;PMS_P1;PMS_P2;Temp;Humidity;BMP_temperature;BMP_pressure;BME280_temperature;BME280_humidity;BME280_pressure;Samples;Min_cycle;Max_cycle;Signal;HPM_P1;HPM_P2
2022/11/20 00:02:20;;;;;;;;;10.25;9.50;;;;;9.97;75.08;101068.50;5016534;28;45386;-73
2022/11/20 00:04:45;;;;;;;;;9.50;8.25;;;;;10.06;75.44;101076.03;5014977;28;45390;-73
2022/11/20 00:07:10;;;;;;;;;11.00;10.00;;;;;7.54;75.11;100683.22;5016007;28;45529;-73
2022/11/20 00:09:36;;;;;;;;;9.75;9.00;;;;;9.86;75.50;101068.19;5016611;28;47443;-73
2022/11/20 00:12:01;;;;;;;;;7.25;7.25;;;;;9.80;75.43;101066.72;5016315;28;45571;-73
2022/11/20 00:14:26;;;;;;;;;8.75;7.50;;;;;9.30;76.03;100988.44;5016021;28;45533;-74
2022/11/20 00:16:52;;;;;;;;;11.75;11.00;;;;;9.83;75.85;101061.22;5016009;28;45441;-73
2022/11/20 00:19:17;;;;;;;;;9.00;9.00;;;;;9.68;75.63;101036.22;5016534;28;46272;-73
2022/11/20 00:21:42;;;;;;;;;10.75;10.75;;;;;9.85;75.74;101071.78;5015248;28;45468;-74
2022/11/20 00:24:10;;;;;;;;;7.00;6.25;;;;;9.95;75.46;101107.72;4998434;28;45302;-74
2022/11/20 00:26:35;;;;;;;;;13.00;9.75;;;;;9.87;75.51;101093.91;4996722;28;45297;-73
2022/11/20 00:29:01;;;;;;;;;6.25;6.25;;;;;9.93;75.85;101109.56;4995873;28;45429;-73
2022/11/20 00:31:28;;;;;;;;;12.75;10.50;;;;;9.84;75.73;101088.72;4996156;28;45356;-74
2022/11/20 00:33:54;;;;;;;;;12.50;10.25;;;;;9.81;75.98;101092.44;4994249;28;45408;-73
2022/11/20 00:36:25;;;;;;;;;11.00;11.00;;;;;9.82;75.67;101093.28;4996777;28;45346;-74
2022/11/20 00:38:55;;;;;;;;;8.00;8.00;;;;;9.75;75.62;101088.25;4996396;28;46255;-74
2022/11/20 00:41:21;;;;;;;;;10.25;9.25;;;;;9.84;75.90;101116.25;4995070;28;45521;-74
2022/11/20 00:43:46;;;;;;;;;3.00;0.75;;;;;9.45;75.57;101045.38;4995033;28;45541;-74
2022/11/20 00:46:17;;;;;;;;;10.50;9.50;;;;;9.84;75.77;101118.03;4996372;28;45600;-74
2022/11/20 00:48:44;;;;;;;;;8.50;8.00;;;;;9.79;75.36;101117.41;4986127;28;46734;-74
2022/11/20 00:51:12;;;;;;;;;7.25;7.25;;;;;9.62;75.47;101105.78;4984708;28;45503;-74
2022/11/20 00:53:37;;;;;;;;;8.50;7.50;;;;;9.65;75.61;101121.63;4992641;28;45401;-74
2022/11/20 00:56:05;;;;;;;;;8.75;8.25;;;;;9.50;75.63;101109.06;4995487;28;45311;-74
2022/11/20 00:58:33;;;;;;;;;8.00;7.00;;;;;9.62;76.03;101115.59;4993792;28;46653;-73
2022/11/20 01:01:09;;;;;;;;;10.25;9.00;;;;;9.40;75.92;101093.53;4995548;28;45711;-74
2022/11/20 01:03:37;;;;;;;;;8.50;8.50;;;;;9.56;75.70;101122.09;4979068;28;45380;-74
2022/11/20 01:06:09;;;;;;;;;7.50;6.25;;;;;9.52;75.53;101120.50;5003315;22;45408;-70
2022/11/20 01:08:36;;;;;;;;;5.75;4.25;;;;;9.47;75.54;101122.53;4995476;28;45318;-70
2022/11/20 01:11:04;;;;;;;;;7.50;5.00;;;;;9.37;75.47;101122.97;4995041;28;45536;-70
2022/11/20 01:13:36;;;;;;;;;4.00;4.00;;;;;9.38;75.31;101119.38;4994967;28;45281;-70
2022/11/20 01:16:09;;;;;;;;;9.25;6.50;;;;;8.71;75.58;101022.31;4980014;28;45440;-70
2022/11/20 01:18:36;;;;;;;;;8.25;6.50;;;;;9.22;75.55;101110.41;4994909;28;46156;-70
2022/11/20 01:21:04;;;;;;;;;4.25;3.25;;;;;9.14;75.44;101109.88;4994935;28;45499;-71
2022/11/20 01:23:32;;;;;;;;;5.00;5.00;;;;;8.99;75.92;101080.41;4994631;28;45647;-70
2022/11/20 01:26:00;;;;;;;;;4.25;4.25;;;;;9.30;75.10;101123.31;4978600;28;45296;-70
2022/11/20 01:28:26;;;;;;;;;5.00;3.50;;;;;9.07;75.23;101093.38;4990555;28;47458;-70
2022/11/20 01:30:51;;;;;;;;;7.25;7.00;;;;;9.10;75.21;101093.22;4994985;28;45272;-71
2022/11/20 01:33:16;;;;;;;;;4.00;4.00;;;;;9.07;75.42;101088.91;4980771;28;45429;-70
2022/11/20 01:35:42;;;;;;;;;6.75;5.25;;;;;9.23;75.07;101114.78;4991314;28;45398;-70
2022/11/20 01:38:07;;;;;;;;;5.00;5.00;;;;;9.26;75.09;101109.31;4979903;28;45520;-70
2022/11/20 01:40:32;;;;;;;;;5.50;5.50;;;;;9.26;74.79;101107.50;4986596;28;45524;-70
2022/11/20 01:43:22;;;;;;;;;3.75;3.75;;;;;9.17;74.35;101115.09;4986750;28;45436;-71
2022/11/20 01:46:06;;;;;;;;;4.75;4.50;;;;;9.17;75.14;101121.25;4978735;28;45562;-71
2022/11/20 01:48:44;;;;;;;;;6.50;6.50;;;;;9.10;74.97;101109.19;4984970;28;46384;-71
2022/11/20 01:51:26;;;;;;;;;5.00;5.00;;;;;9.06;75.30;101097.81;4987896;28;45351;-71
2022/11/20 01:53:56;;;;;;;;;4.50;4.50;;;;;9.14;75.14;101116.09;4976387;28;45438;-71
2022/11/20 01:56:22;;;;;;;;;3.00;3.00;;;;;9.09;75.24;101102.97;4987823;28;45660;-71
2022/11/20 01:58:53;;;;;;;;;1.00;0.00;;;;;9.13;74.69;101106.38;4984691;28;45528;-71
2022/11/20 02:01:20;;;;;;;;;4.50;4.50;;;;;8.89;74.83;101087.09;4987847;28;45455;-71
2022/11/20 02:03:47;;;;;;;;;4.50;4.50;;;;;9.07;75.12;101119.97;4994054;28;45356;-71
2022/11/20 02:06:19;;;;;;;;;5.00;4.25;;;;;9.04;75.10;101107.69;4990439;28;45494;-70
2022/11/20 02:08:44;;;;;;;;;6.00;4.25;;;;;8.55;74.75;101035.47;4989519;28;46155;-71
2022/11/20 02:11:10;;;;;;;;;4.00;4.00;;;;;8.71;75.53;101055.09;4979853;28;45413;-71
2022/11/20 02:13:44;;;;;;;;;7.00;5.25;;;;;8.86;74.94;101077.47;4977997;28;45297;-69
2022/11/20 02:16:17;;;;;;;;;5.50;4.00;;;;;8.90;74.66;101079.03;4994451;28;45349;-71
2022/11/20 02:18:45;;;;;;;;;6.00;3.00;;;;;8.83;74.57;101064.31;4993984;28;45503;-71
2022/11/20 02:21:32;;;;;;;;;2.75;2.75;;;;;9.07;74.56;101104.88;4994245;28;45495;-71
2022/11/20 02:24:08;;;;;;;;;8.50;6.75;;;;;9.03;75.23;101097.97;4978014;28;45497;-71
2022/11/20 02:26:46;;;;;;;;;5.75;4.00;;;;;8.94;74.76;101077.09;4993823;28;45537;-71
2022/11/20 02:29:11;;;;;;;;;7.00;4.00;;;;;8.47;74.65;100997.75;4993699;28;45687;-71
2022/11/20 02:31:39;;;;;;;;;1.00;1.00;;;;;9.13;74.95;101097.53;4993216;28;45355;-71
2022/11/20 02:34:05;;;;;;;;;3.00;3.00;;;;;9.11;74.67;101091.41;4993513;28;45362;-71
2022/11/20 02:36:33;;;;;;;;;6.50;3.00;;;;;9.15;74.98;101090.31;4995172;28;45469;-71
2022/11/20 02:38:59;;;;;;;;;2.00;2.00;;;;;8.97;74.65;101061.00;4996944;28;45448;-71
2022/11/20 02:41:32;;;;;;;;;2.75;2.75;;;;;9.08;74.53;101080.00;4997349;28;45421;-71
2022/11/20 02:43:57;;;;;;;;;4.00;2.00;;;;;8.78;74.58;101012.25;4997363;28;45513;-71
2022/11/20 02:46:23;;;;;;;;;4.00;4.00;;;;;8.96;75.12;101031.78;4997207;28;45479;-71
2022/11/20 02:48:48;;;;;;;;;4.00;4.00;;;;;9.18;74.09;101052.94;4979931;28;46682;-71
2022/11/20 02:51:13;;;;;;;;;3.00;3.00;;;;;8.98;74.74;101012.16;4997566;28;45449;-71
2022/11/20 02:53:39;;;;;;;;;6.25;5.00;;;;;9.23;74.53;101045.56;4996978;28;45515;-71
2022/11/20 02:56:04;;;;;;;;;2.50;2.50;;;;;9.23;74.23;101045.56;4996910;28;45494;-71
2022/11/20 02:58:30;;;;;;;;;3.25;3.25;;;;;9.22;74.38;101043.84;4996892;28;46455;-71
2022/11/20 03:00:55;;;;;;;;;4.25;3.00;;;;;9.07;74.40;101022.38;4996615;28;45404;-71
2022/11/20 03:03:20;;;;;;;;;3.00;2.00;;;;;9.19;74.36;101036.88;4997506;28;45440;-71
2022/11/20 03:05:46;;;;;;;;;3.00;3.00;;;;;9.21;74.35;101034.13;4996527;28;45511;-71
2022/11/20 03:08:11;;;;;;;;;3.25;3.00;;;;;9.05;74.44;101005.59;4996601;28;46226;-71
2022/11/20 03:10:36;;;;;;;;;3.75;2.00;;;;;9.11;74.28;101022.22;4997194;28;45778;-71
2022/11/20 03:13:02;;;;;;;;;2.00;2.00;;;;;9.12;74.43;101014.13;4997073;28;45538;-71
2022/11/20 03:15:27;;;;;;;;;1.00;1.00;;;;;9.19;74.52;101017.38;4997090;28;45465;-71
2022/11/20 03:17:54;;;;;;;;;2.25;2.25;;;;;9.18;74.05;101013.84;4996799;28;46422;-70
2022/11/20 03:20:20;;;;;;;;;3.75;3.75;;;;;9.08;74.30;101005.47;4997215;28;45464;-71
2022/11/20 03:22:45;;;;;;;;;4.00;3.00;;;;;9.09;74.57;101004.50;4997173;28;45298;-71
2022/11/20 03:25:10;;;;;;;;;3.25;3.00;;;;;9.05;74.29;100994.94;4996732;28;45426;-71
2022/11/20 03:27:36;;;;;;;;;2.00;2.00;;;;;8.94;74.16;100972.50;4996114;28;47152;-71
2022/11/20 03:30:01;;;;;;;;;2.00;2.00;;;;;8.86;74.48;100972.84;4996598;28;45383;-71
2022/11/20 03:32:27;;;;;;;;;5.50;4.75;;;;;9.07;74.56;101003.72;4996636;28;45679;-69
2022/11/20 03:34:52;;;;;;;;;2.50;2.50;;;;;9.04;74.61;100998.56;4996176;28;45486;-71
2022/11/20 03:37:17;;;;;;;;;4.75;2.00;;;;;9.02;74.33;100999.59;4982451;28;45438;-71
2022/11/20 03:39:43;;;;;;;;;3.50;3.50;;;;;8.96;74.44;100992.75;4993374;28;45520;-69
2022/11/20 03:42:44;;;;;;;;;2.00;2.00;;;;;8.84;74.63;100962.28;4975666;28;45499;-71
2022/11/20 03:44:54;;;;;;;;;4.25;2.25;;;;;8.88;74.24;100973.63;4987829;28;45564;-71
2022/11/20 03:47:20;;;;;;;;;3.00;3.00;;;;;8.95;74.96;100987.50;4995196;28;46643;-71
2022/11/20 03:49:45;;;;;;;;;2.25;2.25;;;;;8.94;74.88;100977.81;4996075;28;45653;-70
2022/11/20 03:52:10;;;;;;;;;4.00;4.00;;;;;8.89;74.74;100973.56;4997231;28;45470;-69
2022/11/20 03:54:36;;;;;;;;;6.50;4.00;;;;;8.88;75.34;100966.53;4995970;28;45408;-69
2022/11/20 03:57:01;;;;;;;;;3.50;3.50;;;;;8.96;75.46;100973.25;4996683;28;46435;-69
2022/11/20 03:59:26;;;;;;;;;2.75;2.75;;;;;9.02;75.11;100980.94;4997088;28;45394;-70
2022/11/20 04:01:52;;;;;;;;;2.00;2.00;;;;;8.35;75.05;100869.72;4997349;28;45581;-70
2022/11/20 04:04:17;;;;;;;;;4.75;2.00;;;;;8.98;76.12;100966.06;4996160;28;45413;-69
2022/11/20 04:06:42;;;;;;;;;4.00;4.00;;;;;8.65;75.86;100906.47;4996615;28;45306;-69
2022/11/20 04:09:08;;;;;;;;;5.00;5.00;;;;;8.78;75.67;100928.00;4996448;28;45356;-70
2022/11/20 04:11:36;;;;;;;;;3.00;3.00;;;;;8.90;76.21;100942.50;4996272;28;45300;-70
2022/11/20 04:14:04;;;;;;;;;1.25;1.25;;;;;9.05;75.99;100959.50;4996423;28;45511;-71
2022/11/20 04:16:32;;;;;;;;;2.25;1.50;;;;;9.11;75.64;100967.19;4978630;28;46516;-70
2022/11/20 04:19:00;;;;;;;;;4.00;3.00;;;;;9.23;75.46;100989.66;4996533;28;45453;-71
2022/11/20 04:21:26;;;;;;;;;2.75;2.75;;;;;8.94;75.68;100936.09;4996615;28;45411;-70
2022/11/20 04:23:53;;;;;;;;;3.50;3.50;;;;;9.24;75.61;100972.75;4996440;28;45387;-71
2022/11/20 04:26:19;;;;;;;;;2.25;2.00;;;;;9.16;75.40;100951.84;4996381;28;45428;-72
2022/11/20 04:28:45;;;;;;;;;3.75;2.00;;;;;9.26;75.07;100977.06;4996598;28;45453;-72
2022/11/20 04:31:13;;;;;;;;;3.00;1.75;;;;;9.12;75.18;100954.75;4996253;28;45370;-72
2022/11/20 04:33:39;;;;;;;;;2.25;1.75;;;;;9.02;75.27;100925.06;4995825;28;45311;-71
2022/11/20 04:36:12;;;;;;;;;2.00;2.00;;;;;9.36;75.10;100972.13;5000118;28;45419;-69
2022/11/20 04:38:38;;;;;;;;;2.00;2.00;;;;;9.27;74.33;100977.91;5000523;28;45345;-69
2022/11/20 04:41:05;;;;;;;;;2.00;2.00;;;;;9.09;74.70;100955.75;5000372;28;45419;-69
2022/11/20 04:43:32;;;;;;;;;1.25;1.25;;;;;9.22;74.73;100975.50;5000807;28;45382;-68
2022/11/20 04:45:58;;;;;;;;;2.00;1.00;;;;;9.14;74.70;100959.06;5000846;28;47170;-69
2022/11/20 04:48:25;;;;;;;;;2.25;2.25;;;;;9.12;74.96;100957.41;5000774;28;45426;-69
2022/11/20 04:50:51;;;;;;;;;1.25;1.25;;;;;8.99;74.80;100933.19;5000606;28;45315;-69
2022/11/20 04:53:17;;;;;;;;;1.50;1.50;;;;;8.93;74.57;100921.06;4999869;28;45457;-69
2022/11/20 04:55:43;;;;;;;;;2.50;2.00;;;;;9.21;74.47;100963.13;4999741;28;47387;-70
2022/11/20 04:58:08;;;;;;;;;4.00;3.00;;;;;9.04;75.00;100928.50;4999839;28;45474;-70
2022/11/20 05:00:34;;;;;;;;;1.75;1.75;;;;;9.19;74.29;100953.47;4999910;28;45322;-69
2022/11/20 05:02:59;;;;;;;;;2.00;2.00;;;;;9.12;74.79;100941.44;4982372;28;45360;-69
2022/11/20 05:05:25;;;;;;;;;2.00;2.00;;;;;8.92;74.64;100906.03;4999060;28;45439;-69
2022/11/20 05:07:50;;;;;;;;;2.50;2.50;;;;;9.20;74.09;100956.06;4999089;28;45300;-69
2022/11/20 05:10:16;;;;;;;;;1.50;1.50;;;;;9.03;74.22;100925.00;4997781;28;45371;-70
2022/11/20 05:12:41;;;;;;;;;1.50;1.25;;;;;8.98;74.19;100908.38;4996000;28;45463;-71
2022/11/20 05:15:07;;;;;;;;;1.50;1.25;;;;;9.16;74.23;100938.53;4995542;28;46458;-71
2022/11/20 05:17:32;;;;;;;;;1.25;1.00;;;;;9.23;74.29;100949.72;4995718;28;45501;-71
2022/11/20 05:19:58;;;;;;;;;2.00;2.00;;;;;9.27;74.05;100948.63;4995587;28;45617;-71
2022/11/20 05:22:23;;;;;;;;;1.00;1.00;;;;;9.27;74.56;100953.97;4995453;28;45561;-71
2022/11/20 05:24:48;;;;;;;;;2.00;1.00;;;;;8.50;73.86;100819.44;4995052;28;46346;-71
2022/11/20 05:27:14;;;;;;;;;4.00;2.00;;;;;8.70;73.56;100872.50;4995632;28;45393;-70
2022/11/20 05:29:39;;;;;;;;;3.00;2.75;;;;;9.15;74.06;100938.59;4977016;28;45384;-71
2022/11/20 05:32:07;;;;;;;;;1.00;1.00;;;;;9.22;73.98;100948.03;4995371;28;45359;-71
2022/11/20 05:34:32;;;;;;;;;2.00;2.00;;;;;8.95;73.54;100902.34;4977302;28;45676;-71
2022/11/20 05:36:58;;;;;;;;;2.00;2.00;;;;;9.23;73.45;100941.75;4995645;28;45375;-71
2022/11/20 05:39:23;;;;;;;;;3.75;2.50;;;;;8.53;73.48;100836.13;4978047;28;45388;-71
2022/11/20 05:42:29;;;;;;;;;2.00;2.00;;;;;9.06;73.55;100916.84;4995140;28;45512;-71
2022/11/20 05:44:33;;;;;;;;;2.50;2.50;;;;;9.18;73.70;100936.66;4988451;28;45445;-71
2022/11/20 05:46:59;;;;;;;;;2.00;2.00;;;;;9.18;73.56;100931.34;4976119;28;45437;-71
2022/11/20 05:49:24;;;;;;;;;2.00;2.00;;;;;8.95;73.16;100892.59;4975939;28;45402;-71
2022/11/20 05:51:49;;;;;;;;;1.00;1.00;;;;;9.21;73.55;100935.66;4975799;28;45433;-71
2022/11/20 05:54:15;;;;;;;;;0.75;0.75;;;;;9.18;73.49;100928.69;4977654;28;45942;-70
2022/11/20 05:56:40;;;;;;;;;1.50;1.50;;;;;9.25;73.51;100932.75;4994188;28;45386;-71
2022/11/20 05:59:06;;;;;;;;;6.00;1.00;;;;;9.07;73.45;100899.94;4987974;28;45589;-72
2022/11/20 06:01:31;;;;;;;;;0.50;0.50;;;;;9.27;73.38;100932.66;4975701;28;45379;-72
2022/11/20 06:03:56;;;;;;;;;1.00;1.00;;;;;9.26;73.44;100925.63;4975197;28;45678;-70
2022/11/20 06:06:22;;;;;;;;;1.00;1.00;;;;;9.26;73.24;100915.84;4977626;28;45750;-73
2022/11/20 06:08:48;;;;;;;;;4.25;1.00;;;;;8.94;73.34;100863.41;4983592;28;45478;-72
2022/11/20 06:11:15;;;;;;;;;5.00;2.00;;;;;9.12;74.18;100893.53;4974860;28;45482;-72
2022/11/20 06:13:41;;;;;;;;;1.00;1.00;;;;;9.34;73.63;100920.78;4975471;28;46581;-70
2022/11/20 06:16:07;;;;;;;;;3.75;2.25;;;;;9.40;73.65;100920.44;4974772;28;45645;-72
2022/11/20 06:18:33;;;;;;;;;6.75;1.50;;;;;9.39;73.19;100908.09;4975228;28;45392;-72
2022/11/20 06:21:06;;;;;;;;;2.25;2.25;;;;;9.42;73.64;100912.38;4957740;28;45527;-71
2022/11/20 06:23:33;;;;;;;;;1.75;1.00;;;;;9.40;73.07;100912.47;4980098;28;45528;-71
2022/11/20 06:26:05;;;;;;;;;1.75;1.75;;;;;9.39;72.41;100891.25;4981103;28;45360;-71
2022/11/20 06:28:31;;;;;;;;;4.00;4.00;;;;;9.37;72.57;100894.00;4986269;28;45447;-71
2022/11/20 06:30:57;;;;;;;;;1.00;1.00;;;;;9.24;72.28;100888.44;4976104;28;45474;-71
2022/11/20 06:33:23;;;;;;;;;1.75;1.75;;;;;9.10;72.27;100874.97;4994423;28;46329;-71
2022/11/20 06:35:48;;;;;;;;;2.00;2.00;;;;;9.25;71.97;100913.25;4995065;28;45252;-70
2022/11/20 06:38:14;;;;;;;;;3.25;1.25;;;;;9.17;72.05;100902.16;4994982;28;45292;-70
2022/11/20 06:40:41;;;;;;;;;2.50;1.25;;;;;9.28;71.64;100913.09;4970563;28;45314;-72
2022/11/20 06:43:06;;;;;;;;;1.00;1.00;;;;;9.04;71.77;100875.28;4975464;28;45595;-73
2022/11/20 06:45:31;;;;;;;;;2.00;2.00;;;;;9.27;71.55;100890.06;4971476;28;45423;-73
2022/11/20 06:47:58;;;;;;;;;3.75;3.00;;;;;9.05;71.15;100856.56;4961014;28;45402;-71
2022/11/20 06:50:23;;;;;;;;;3.00;2.00;;;;;9.33;71.31;100902.22;4971277;28;45664;-71
2022/11/20 06:52:48;;;;;;;;;1.75;1.50;;;;;9.27;71.27;100892.72;4978140;28;45814;-71
2022/11/20 06:55:14;;;;;;;;;4.25;2.00;;;;;8.99;71.32;100851.59;4979057;28;45412;-71
2022/11/20 06:57:39;;;;;;;;;0.50;0.50;;;;;9.26;71.16;100899.88;4976992;28;45377;-71
2022/11/20 07:00:06;;;;;;;;;3.25;2.00;;;;;9.17;71.62;100889.69;4993938;28;45446;-71
2022/11/20 07:02:31;;;;;;;;;1.00;1.00;;;;;9.21;71.50;100890.41;4994219;28;46872;-71
2022/11/20 07:04:56;;;;;;;;;3.25;2.00;;;;;9.36;71.20;100921.53;4976546;28;45475;-71
2022/11/20 07:07:22;;;;;;;;;2.50;1.25;;;;;9.40;70.85;100923.09;4994389;28;45429;-72
2022/11/20 07:09:47;;;;;;;;;2.50;2.50;;;;;9.46;71.58;100926.41;4994689;28;45430;-71
2022/11/20 07:12:12;;;;;;;;;2.00;2.00;;;;;9.39;71.14;100907.22;4992702;28;46032;-71
2022/11/20 07:14:38;;;;;;;;;1.75;1.75;;;;;9.39;71.48;100901.88;4976645;28;45400;-71
2022/11/20 07:17:03;;;;;;;;;1.00;1.00;;;;;9.39;70.79;100908.09;4994544;28;45460;-71
2022/11/20 07:19:28;;;;;;;;;2.25;2.00;;;;;9.43;70.92;100920.31;4994458;28;45505;-71
2022/11/20 07:21:53;;;;;;;;;1.25;1.25;;;;;9.17;70.58;100880.84;4976491;28;48027;-71
2022/11/20 07:24:19;;;;;;;;;5.75;2.25;;;;;9.20;70.69;100878.88;4963769;28;45511;-71
2022/11/20 07:26:47;;;;;;;;;4.50;4.50;;;;;9.36;70.50;100915.38;4996702;28;45378;-72
2022/11/20 07:29:12;;;;;;;;;2.25;2.25;;;;;9.17;69.87;100889.69;4997119;28;45913;-72
2022/11/20 07:31:38;;;;;;;;;3.00;3.00;;;;;9.35;69.88;100921.63;4980109;28;46122;-71
2022/11/20 07:34:03;;;;;;;;;2.00;2.00;;;;;9.36;69.55;100920.69;4997781;28;45398;-71
2022/11/20 07:36:28;;;;;;;;;3.25;2.00;;;;;9.36;69.79;100929.53;4979720;28;45340;-71
2022/11/20 07:38:54;;;;;;;;;1.00;1.00;;;;;9.24;69.15;100904.44;4997484;28;45467;-71
2022/11/20 07:41:19;;;;;;;;;1.00;1.00;;;;;9.42;69.51;100928.34;4997451;28;45495;-71
2022/11/20 07:43:44;;;;;;;;;5.50;2.25;;;;;9.40;68.83;100915.13;4997681;28;45462;-72
2022/11/20 07:46:10;;;;;;;;;1.75;1.75;;;;;9.47;68.39;100925.47;4996923;28;45350;-72
2022/11/20 07:48:35;;;;;;;;;3.50;2.25;;;;;8.90;68.41;100849.38;4996797;28;45520;-71
2022/11/20 07:51:01;;;;;;;;;3.00;3.00;;;;;9.36;69.27;100916.22;4979222;28;48015;-71
2022/11/20 07:53:26;;;;;;;;;3.75;3.75;;;;;9.22;69.57;100877.00;4997487;28;45472;-71
2022/11/20 07:55:52;;;;;;;;;9.50;8.25;;;;;9.31;69.17;100882.78;4997711;28;45356;-71
2022/11/20 07:58:18;;;;;;;;;5.75;4.50;;;;;9.11;68.30;100855.41;4995799;28;45315;-72
2022/11/20 08:00:44;;;;;;;;;4.25;4.25;;;;;9.34;68.79;100891.50;4979914;28;47405;-71
2022/11/20 08:03:09;;;;;;;;;6.25;5.50;;;;;9.60;69.49;100913.22;4997010;28;45266;-71
2022/11/20 08:05:34;;;;;;;;;4.00;3.00;;;;;9.65;68.69;100916.53;4994947;28;45503;-71
2022/11/20 08:08:00;;;;;;;;;2.75;2.75;;;;;9.23;69.23;100865.44;4996596;28;45426;-72
2022/11/20 08:10:25;;;;;;;;;1.00;1.00;;;;;9.18;69.22;100869.28;4996206;28;45385;-71
2022/11/20 08:15:37;;;;;;;;;3.00;3.00;;;;;9.55;69.67;100915.28;4997395;28;45352;-71
2022/11/20 08:18:04;;;;;;;;;3.00;2.00;;;;;8.86;69.88;100786.63;4996444;28;45415;-71
2022/11/20 08:20:29;;;;;;;;;4.00;2.75;;;;;9.64;70.11;100904.13;4996557;28;46632;-71
2022/11/20 08:22:59;;;;;;;;;3.25;3.25;;;;;9.65;70.39;100905.00;4996690;28;45351;-71
2022/11/20 08:25:25;;;;;;;;;4.00;3.00;;;;;9.65;70.68;100892.56;4996325;28;45395;-71
2022/11/20 08:27:51;;;;;;;;;7.75;4.00;;;;;9.77;71.03;100907.88;4995699;28;45375;-70
2022/11/20 08:30:16;;;;;;;;;3.25;3.25;;;;;9.74;71.21;100891.19;4996140;28;45526;-70
2022/11/20 08:32:41;;;;;;;;;8.00;7.25;;;;;9.81;71.90;100889.06;4978781;28;45364;-70
2022/11/20 08:35:07;;;;;;;;;6.75;4.00;;;;;9.80;72.23;100884.66;4996585;28;45420;-70
2022/11/20 08:37:32;;;;;;;;;3.25;3.25;;;;;9.86;72.19;100879.88;4994533;28;45568;-71
2022/11/20 08:39:58;;;;;;;;;7.00;6.00;;;;;9.96;72.54;100893.56;4995670;28;46270;-70
2022/11/20 08:42:23;;;;;;;;;4.00;4.00;;;;;9.88;72.41;100883.31;4995966;28;45678;-70
2022/11/20 08:44:48;;;;;;;;;4.00;4.00;;;;;9.83;72.77;100879.19;4994559;28;47082;-70
2022/11/20 08:47:14;;;;;;;;;8.25;7.50;;;;;9.72;72.96;100867.28;4977295;28;45447;-70
2022/11/20 08:49:39;;;;;;;;;6.00;6.00;;;;;9.70;73.15;100860.31;4995825;28;51329;-70
2022/11/20 08:52:05;;;;;;;;;5.00;5.00;;;;;9.84;74.23;100880.88;4996247;28;45406;-70
2022/11/20 08:54:30;;;;;;;;;5.25;4.50;;;;;9.76;73.86;100868.00;4979061;28;45371;-71
2022/11/20 08:56:56;;;;;;;;;4.00;3.00;;;;;9.73;74.19;100857.50;4978436;28;45339;-70
2022/11/20 08:59:21;;;;;;;;;4.25;3.00;;;;;9.76;75.23;100871.50;4996305;28;46229;-71
2022/11/20 09:01:47;;;;;;;;;5.50;4.00;;;;;9.68;75.15;100849.75;4996064;28;45395;-70
2022/11/20 09:04:14;;;;;;;;;4.00;3.50;;;;;9.72;75.78;100850.47;4996154;28;45459;-70
2022/11/20 09:06:39;;;;;;;;;3.50;3.50;;;;;9.81;76.68;100865.94;4997125;28;45351;-69
2022/11/20 09:09:05;;;;;;;;;3.75;3.75;;;;;9.80;77.03;100863.34;4996214;28;46666;-69
2022/11/20 09:11:31;;;;;;;;;4.00;4.00;;;;;9.53;77.08;100808.84;4979689;28;45340;-70
2022/11/20 09:13:56;;;;;;;;;3.25;2.25;;;;;9.86;76.93;100871.03;4996411;28;45322;-70
2022/11/20 09:16:21;;;;;;;;;5.00;3.25;;;;;9.68;76.85;100844.44;4996626;28;45268;-69
2022/11/20 09:18:50;;;;;;;;;7.50;6.00;;;;;9.54;77.96;100823.00;4979055;28;47213;-70
2022/11/20 09:21:16;;;;;;;;;8.25;6.50;;;;;9.68;77.95;100848.91;4996970;28;45533;-70
2022/11/20 09:23:41;;;;;;;;;4.75;4.25;;;;;9.76;78.05;100860.84;4996710;28;45423;-70
2022/11/20 09:26:10;;;;;;;;;4.25;4.25;;;;;9.72;77.81;100845.97;4996028;28;45419;-70
2022/11/20 09:28:35;;;;;;;;;4.25;4.25;;;;;9.70;78.43;100839.00;4996098;28;45410;-70
2022/11/20 09:31:05;;;;;;;;;5.75;5.75;;;;;9.68;78.62;100825.78;4996691;28;45385;-70
2022/11/20 09:33:31;;;;;;;;;6.50;6.50;;;;;9.64;79.34;100802.06;4996448;28;45738;-71
2022/11/20 09:35:56;;;;;;;;;10.00;7.50;;;;;9.87;78.82;100830.13;4996790;28;45348;-69
2022/11/20 09:38:21;;;;;;;;;6.75;6.75;;;;;9.86;79.55;100817.72;4996583;28;46233;-70
2022/11/20 09:40:57;;;;;;;;;7.00;7.00;;;;;8.90;80.08;100669.31;4962462;28;45452;-70
2022/11/20 09:43:37;;;;;;;;;4.75;2.75;;;;;9.84;81.13;100827.59;4996642;28;45430;-70
2022/11/20 09:46:36;;;;;;;;;7.00;7.00;;;;;9.80;80.66;100834.03;4994413;28;45362;-69
2022/11/20 09:49:28;;;;;;;;;9.00;8.00;;;;;9.67;80.92;100791.25;4987368;28;45765;-71
2022/11/20 09:51:58;;;;;;;;;7.50;6.75;;;;;8.79;81.34;100644.25;4995846;28;45651;-71
2022/11/20 09:54:31;;;;;;;;;9.00;9.00;;;;;9.80;81.35;100821.59;4995732;28;45648;-70
2022/11/20 09:57:02;;;;;;;;;9.25;9.25;;;;;9.78;82.09;100818.16;4995727;28;45394;-71
2022/11/20 09:59:40;;;;;;;;;9.50;7.75;;;;;9.77;81.87;100816.41;4994959;28;45355;-71
2022/11/20 10:02:35;;;;;;;;;7.75;7.75;;;;;9.74;82.47;100817.47;4995886;28;45837;-70
2022/11/20 10:05:10;;;;;;;;;7.00;7.00;;;;;9.67;83.04;100813.41;4995517;28;45393;-71
2022/11/20 10:07:48;;;;;;;;;10.25;9.00;;;;;9.50;83.57;100792.16;4995281;28;45292;-70
2022/11/20 10:10:16;;;;;;;;;8.25;7.25;;;;;9.30;84.36;100743.50;4987042;28;46518;-73
2022/11/20 10:12:57;;;;;;;;;8.00;5.50;;;;;9.75;84.04;100805.00;4976857;28;45428;-73
2022/11/20 10:15:45;;;;;;;;;8.00;8.00;;;;;9.59;84.32;100779.19;4988247;28;45501;-73
2022/11/20 10:18:45;;;;;;;;;9.50;8.25;;;;;9.71;85.94;100796.31;4995561;28;45320;-73
2022/11/20 10:21:21;;;;;;;;;7.75;7.00;;;;;9.63;85.75;100760.41;4995145;28;45415;-73
2022/11/20 10:23:55;;;;;;;;;10.75;10.50;;;;;9.77;86.87;100780.00;4995977;28;45390;-73
2022/11/20 10:26:47;;;;;;;;;8.25;7.50;;;;;9.68;86.09;100767.19;4995662;28;45395;-73
2022/11/20 10:29:16;;;;;;;;;3.25;3.25;;;;;9.82;87.27;100784.22;4990793;28;45624;-73
2022/11/20 10:31:56;;;;;;;;;8.25;6.50;;;;;9.77;87.72;100773.78;4975819;28;46943;-73
2022/11/20 10:34:28;;;;;;;;;7.25;5.50;;;;;9.87;87.73;100775.00;4976100;28;45637;-73
2022/11/20 10:37:03;;;;;;;;;5.00;4.00;;;;;9.84;88.66;100775.19;4984668;28;45311;-73
2022/11/20 10:39:28;;;;;;;;;5.25;4.75;;;;;9.93;88.69;100776.47;4976454;28;45280;-73
2022/11/20 10:41:54;;;;;;;;;5.25;5.25;;;;;9.99;88.25;100783.25;4975947;28;46389;-73
2022/11/20 10:47:13;;;;;;;;;4.75;4.75;;;;;9.80;88.19;100714.16;4983291;28;45380;-73
2022/11/20 10:49:41;;;;;;;;;4.25;4.25;;;;;10.01;88.97;100750.25;4993531;28;45423;-73
2022/11/20 10:52:28;;;;;;;;;3.00;3.00;;;;;10.13;89.16;100764.69;4995163;28;46465;-73
2022/11/20 10:55:12;;;;;;;;;4.00;4.00;;;;;9.86;88.76;100711.16;4995694;28;45371;-73
2022/11/20 10:57:59;;;;;;;;;3.25;3.25;;;;;10.20;88.85;100765.19;4997406;28;45441;-72
2022/11/20 11:00:25;;;;;;;;;5.50;3.25;;;;;10.17;89.88;100754.72;4998718;28;45582;-72
2022/11/20 11:02:56;;;;;;;;;4.25;4.00;;;;;10.23;90.44;100760.56;4999069;28;45374;-74
2022/11/20 11:05:31;;;;;;;;;7.25;4.75;;;;;10.27;90.31;100755.88;4997410;28;45438;-73
2022/11/20 11:07:58;;;;;;;;;3.00;2.00;;;;;10.05;90.20;100713.63;4988077;28;45265;-73
2022/11/20 11:11:01;;;;;;;;;3.00;2.00;;;;;10.08;91.94;100714.31;4961416;28;45548;-72
2022/11/20 11:13:29;;;;;;;;;9.00;4.00;;;;;10.26;92.60;100738.19;4977527;28;45894;-72
2022/11/20 11:15:55;;;;;;;;;1.25;1.25;;;;;10.22;93.52;100739.31;4979268;28;45375;-72
2022/11/20 11:18:25;;;;;;;;;2.00;2.00;;;;;10.00;93.10;100691.69;4979769;28;45359;-73
2022/11/20 11:20:51;;;;;;;;;3.00;3.00;;;;;10.23;93.07;100728.56;4979054;28;45288;-72
2022/11/20 11:23:42;;;;;;;;;2.75;2.75;;;;;10.21;93.71;100726.94;4979463;28;45447;-73
2022/11/20 11:26:25;;;;;;;;;4.75;3.00;;;;;10.15;94.07;100727.28;4978713;28;45328;-73
2022/11/20 11:29:16;;;;;;;;;2.00;2.00;;;;;10.17;94.98;100749.38;4992390;28;45316;-72
2022/11/20 11:31:42;;;;;;;;;1.00;1.00;;;;;10.14;95.50;100738.91;4980972;28;45472;-72
2022/11/20 11:34:17;;;;;;;;;3.00;3.00;;;;;9.88;95.64;100703.91;4998613;28;47321;-72
2022/11/20 11:36:53;;;;;;;;;2.25;2.25;;;;;9.91;96.00;100687.78;4998522;28;45385;-71
2022/11/20 11:39:20;;;;;;;;;1.00;0.50;;;;;10.10;95.37;100720.41;4980958;28;45317;-71
2022/11/20 11:41:47;;;;;;;;;1.75;1.75;;;;;10.08;95.40;100714.31;4998488;28;45367;-71
2022/11/20 11:47:09;;;;;;;;;0.75;0.75;;;;;10.15;94.86;100711.28;4983406;28;45559;-72